^^
Saratoga-Weather Station Historical Data
Daily Summary for November 9, 2020 Units:  English    Metric   Both
Daily Weekly Monthly Yearly Custom
  High: Low: Average:
Temperature: 60.3 °F 46 °F 51.3 °F
Dew Point: 54.5 °F 45.1 °F 49.1 °F
Humidity: 98% 79% 93%
Wind Speed: 2.9mph 0mph 0.1mph
Wind Gust: 6mph - -
Wind- - East
Pressure: 30.2 in 30.2 in -
Precipitation: 0.01 in    
Historical Graphs
 
 
Tabular Data for November 9, 2020
Time Temperature Dew Point Pressure Wind Wind Speed Wind Gust Humidity Rainfall Rate (Hourly) solar
00:00 47.1 °F 46 °F 30.2 in Calm     96% 0 in 0 W/m2
00:05 47.1 °F 46 °F 30.2 in Calm     96% 0 in 0 W/m2
00:10 47.3 °F 46.2 °F 30.2 in Calm     96% 0 in 0 W/m2
00:15 47.3 °F 46.2 °F 30.2 in Calm     96% 0 in 0 W/m2
00:20 47.5 °F 46.4 °F 30.2 in Calm     96% 0 in 0 W/m2
00:25 47.7 °F 46.9 °F 30.2 in Calm     97% 0 in 0 W/m2
00:30 47.7 °F 46.9 °F 30.2 in Calm     97% 0 in 0 W/m2
00:35 47.8 °F 46.9 °F 30.2 in Calm     97% 0 in 0 W/m2
00:40 47.8 °F 46.9 °F 30.2 in Calm     97% 0 in 0 W/m2
00:45 47.8 °F 46.9 °F 30.2 in Calm     97% 0 in 0 W/m2
00:50 47.8 °F 46.9 °F 30.2 in Calm     97% 0 in 0 W/m2
00:55 47.8 °F 46.9 °F 30.2 in Calm     97% 0 in 0 W/m2
01:00 47.8 °F 46.9 °F 30.2 in Calm     97% 0 in 0 W/m2
01:05 47.8 °F 46.9 °F 30.2 in Calm     97% 0 in 0 W/m2
01:10 48 °F 47.1 °F 30.2 in Calm     97% 0 in 0 W/m2
01:15 48 °F 47.1 °F 30.2 in Calm     97% 0 in 0 W/m2
01:20 48 °F 47.1 °F 30.2 in Calm     97% 0 in 0 W/m2
01:25 48 °F 46.9 °F 30.2 in Calm     96% 0 in 0 W/m2
01:30 47.8 °F 46.8 °F 30.2 in Calm     96% 0 in 0 W/m2
01:35 47.8 °F 46.8 °F 30.2 in Calm     96% 0 in 0 W/m2
01:40 47.7 °F 46.6 °F 30.2 in Calm     96% 0 in 0 W/m2
01:45 47.5 °F 46.4 °F 30.2 in Calm     96% 0 in 0 W/m2
01:50 47.5 °F 46.4 °F 30.2 in Calm     96% 0 in 0 W/m2
01:55 47.5 °F 46.4 °F 30.2 in Calm     96% 0 in 0 W/m2
02:00 47.5 °F 46.4 °F 30.2 in Calm     96% 0 in 0 W/m2
02:05 47.5 °F 46.4 °F 30.2 in Calm     96% 0 in 0 W/m2
02:10 47.5 °F 46.4 °F 30.2 in Calm     96% 0 in 0 W/m2
02:15 47.5 °F 46.4 °F 30.2 in Calm     96% 0 in 0 W/m2
02:20 47.5 °F 46.4 °F 30.2 in Calm     96% 0 in 0 W/m2
02:25 47.7 °F 46.9 °F 30.2 in NNW 0.9 mph 2 mph 97% 0 in 0 W/m2
02:30 48.2 °F 47.3 °F 30.2 in Calm     97% 0 in 0 W/m2
02:35 48.4 °F 47.5 °F 30.2 in Calm   1 mph 97% 0 in 0 W/m2
02:40 48.4 °F 47.5 °F 30.2 in ENE 0.9 mph 2 mph 97% 0 in 0 W/m2
02:45 47.8 °F 46.9 °F 30.2 in East 2 mph 3 mph 97% 0 in 0 W/m2
02:50 47.5 °F 46.4 °F 30.2 in Calm   1 mph 96% 0 in 0 W/m2
02:55 46.9 °F 45.9 °F 30.2 in Calm     96% 0 in 0 W/m2
03:00 46.8 °F 45.7 °F 30.2 in Calm     96% 0 in 0 W/m2
03:05 46.6 °F 45.5 °F 30.2 in Calm     96% 0 in 0 W/m2
03:10 46.6 °F 45.5 °F 30.2 in Calm     96% 0 in 0 W/m2
03:15 46.2 °F 45.1 °F 30.2 in Calm     96% 0 in 0 W/m2
03:20 46.2 °F 45.5 °F 30.2 in Calm     97% 0 in 0 W/m2
03:25 46.2 °F 45.1 °F 30.2 in Calm   1 mph 96% 0 in 0 W/m2
03:30 46.2 °F 45.1 °F 30.2 in Calm     96% 0 in 0 W/m2
03:35 46.2 °F 45.5 °F 30.2 in Calm   1 mph 97% 0 in 0 W/m2
03:40 46.2 °F 45.5 °F 30.2 in Calm     97% 0 in 0 W/m2
03:45 46.4 °F 45.7 °F 30.2 in Calm     97% 0 in 0 W/m2
03:50 46.4 °F 45.7 °F 30.2 in East 0.9 mph 1 mph 97% 0 in 0 W/m2
03:55 46.6 °F 45.9 °F 30.2 in Calm     97% 0 in 0 W/m2
04:00 46.6 °F 45.9 °F 30.2 in Calm     97% 0 in 0 W/m2
04:05 46.8 °F 46 °F 30.2 in Calm     97% 0 in 0 W/m2
04:10 46.9 °F 46.2 °F 30.2 in Calm   1 mph 97% 0 in 0 W/m2
04:15 46.9 °F 46.2 °F 30.2 in Calm     97% 0.01 in 0 W/m2
04:20 46.9 °F 46.2 °F 30.2 in East 0.9 mph 1 mph 97% 0.01 in 0 W/m2
04:25 47.1 °F 46.4 °F 30.2 in Calm     97% 0.01 in 0 W/m2
04:30 47.1 °F 46.4 °F 30.2 in Calm     97% 0.01 in 0 W/m2
04:35 47.1 °F 46.4 °F 30.2 in Calm     97% 0.01 in 0 W/m2
04:40 47.3 °F 46.6 °F 30.2 in Calm     97% 0.01 in 0 W/m2
04:45 47.5 °F 46.8 °F 30.2 in Calm     97% 0.01 in 0 W/m2
04:50 47.7 °F 46.9 °F 30.2 in Calm     97% 0.01 in 0 W/m2
04:55 48 °F 47.1 °F 30.2 in Calm     97% 0.01 in 0 W/m2
05:00 48.6 °F 47.7 °F 30.2 in Calm     97% 0.01 in 0 W/m2
05:05 48.7 °F 47.8 °F 30.2 in Calm     97% 0.01 in 0 W/m2
05:10 48.9 °F 48 °F 30.2 in Calm     97% 0.01 in 0 W/m2
05:15 49.1 °F 48.2 °F 30.2 in Calm     97% 0 in 0 W/m2
05:20 48.9 °F 48 °F 30.2 in Calm     97% 0 in 0 W/m2
05:25 48.7 °F 47.8 °F 30.2 in Calm     97% 0 in 0 W/m2
05:30 48.6 °F 47.7 °F 30.2 in Calm     97% 0 in 0 W/m2
05:35 48.4 °F 47.5 °F 30.2 in Calm     97% 0 in 0 W/m2
05:40 48.4 °F 47.5 °F 30.2 in Calm     97% 0 in 0 W/m2
05:45 48.6 °F 47.7 °F 30.2 in Calm     97% 0 in 0 W/m2
05:50 48.7 °F 47.8 °F 30.2 in Calm     97% 0 in 0 W/m2
05:55 48.7 °F 47.8 °F 30.2 in Calm     97% 0 in 0 W/m2
06:00 48.6 °F 47.7 °F 30.2 in Calm     97% 0 in 0 W/m2
06:05 48.4 °F 47.5 °F 30.2 in Calm     97% 0 in 0 W/m2
06:10 48 °F 47.1 °F 30.2 in Calm     97% 0 in 0 W/m2
06:16 47.7 °F 46.9 °F 30.2 in Calm     97% 0 in 0 W/m2
06:21 47.5 °F 46.8 °F 30.2 in Calm     97% 0 in 0 W/m2
06:26 47.3 °F 46.6 °F 30.2 in Calm     97% 0 in 0 W/m2
06:31 47.1 °F 46.4 °F 30.2 in Calm     97% 0 in 0 W/m2
06:36 46.9 °F 46.2 °F 30.2 in Calm     97% 0 in 0 W/m2
06:41 46.9 °F 46.2 °F 30.2 in Calm     97% 0 in 0 W/m2
06:46 46.9 °F 46.2 °F 30.2 in Calm     97% 0 in 0 W/m2
06:51 46.8 °F 46 °F 30.2 in Calm     97% 0 in 0 W/m2
06:56 46.8 °F 46 °F 30.2 in Calm     97% 0 in 0 W/m2
07:01 46.6 °F 45.9 °F 30.2 in Calm     97% 0 in 0 W/m2
07:06 46.6 °F 45.9 °F 30.2 in Calm     97% 0 in 0 W/m2
07:11 46.6 °F 45.9 °F 30.2 in Calm     97% 0 in 0 W/m2
07:16 46.4 °F 45.7 °F 30.2 in Calm     97% 0 in 0 W/m2
07:21 46.4 °F 45.7 °F 30.2 in Calm     97% 0 in 0 W/m2
07:26 46.2 °F 45.5 °F 30.2 in Calm     97% 0 in 0 W/m2
07:31 46 °F 45.3 °F 30.2 in Calm     97% 0 in 0 W/m2
07:36 46 °F 45.3 °F 30.2 in Calm     97% 0 in 0 W/m2
07:41 46 °F 45.3 °F 30.2 in Calm     97% 0 in 0 W/m2
07:46 46 °F 45.3 °F 30.2 in Calm     97% 0 in 5 W/m2
07:51 46 °F 45.3 °F 30.2 in Calm     97% 0 in 9 W/m2
07:56 46.2 °F 45.5 °F 30.2 in Calm     97% 0 in 12 W/m2
08:01 46.2 °F 45.5 °F 30.2 in Calm     97% 0 in 18 W/m2
08:06 46.6 °F 45.9 °F 30.2 in Calm   1 mph 97% 0 in 18 W/m2
08:11 46.8 °F 46 °F 30.2 in Calm     97% 0 in 23 W/m2
08:16 46.9 °F 46.2 °F 30.2 in Calm   1 mph 97% 0 in 32 W/m2
08:21 46.9 °F 46.2 °F 30.2 in Calm     97% 0 in 35 W/m2
08:26 47.1 °F 46.4 °F 30.2 in Calm     97% 0 in 30 W/m2
08:31 47.5 °F 46.8 °F 30.2 in Calm     97% 0 in 26 W/m2
08:36 47.7 °F 46.9 °F 30.2 in Calm     97% 0 in 26 W/m2
08:41 47.8 °F 46.9 °F 30.2 in Calm     97% 0 in 33 W/m2
08:46 47.8 °F 46.9 °F 30.2 in Calm     97% 0 in 51 W/m2
08:51 48 °F 47.5 °F 30.2 in Calm     98% 0 in 70 W/m2
08:56 48 °F 47.1 °F 30.2 in Calm     97% 0 in 86 W/m2
09:01 48.4 °F 47.5 °F 30.2 in Calm     97% 0 in 76 W/m2
09:06 48.7 °F 48.2 °F 30.2 in Calm     98% 0 in 70 W/m2
09:11 48.9 °F 48 °F 30.2 in Calm     97% 0 in 74 W/m2
09:16 49.1 °F 48.6 °F 30.2 in Calm     98% 0 in 72 W/m2
09:21 49.5 °F 48.9 °F 30.2 in Calm     98% 0 in 77 W/m2
09:26 49.5 °F 48.6 °F 30.2 in ENE 2 mph 2 mph 97% 0 in 84 W/m2
09:31 49.6 °F 48.7 °F 30.2 in Calm     97% 0 in 90 W/m2
09:36 49.6 °F 48.7 °F 30.2 in ENE 0.9 mph 2 mph 97% 0 in 97 W/m2
09:41 49.8 °F 49.3 °F 30.2 in SSE 0.9 mph 1 mph 98% 0 in 93 W/m2
09:46 49.8 °F 49.3 °F 30.2 in Calm   1 mph 98% 0 in 86 W/m2
09:51 50 °F 49.5 °F 30.2 in Calm     98% 0 in 86 W/m2
09:56 50 °F 49.5 °F 30.2 in ESE 0.9 mph 2 mph 98% 0 in 84 W/m2
10:01 50 °F 49.5 °F 30.2 in ESE 0.9 mph 1 mph 98% 0 in 83 W/m2
10:06 50 °F 49.1 °F 30.2 in Calm   1 mph 97% 0 in 86 W/m2
10:11 50.2 °F 49.3 °F 30.2 in Calm     97% 0 in 127 W/m2
10:16 50.2 °F 49.3 °F 30.2 in Calm     97% 0 in 146 W/m2
10:21 50.4 °F 49.8 °F 30.2 in NNW 2 mph 2 mph 98% 0 in 118 W/m2
10:26 50.4 °F 49.5 °F 30.2 in Calm     97% 0 in 128 W/m2
10:31 50.5 °F 49.6 °F 30.2 in Calm   2 mph 97% 0 in 114 W/m2
10:36 50.5 °F 49.6 °F 30.2 in Calm   1 mph 97% 0 in 84 W/m2
10:41 50.5 °F 49.6 °F 30.2 in Calm   1 mph 97% 0 in 76 W/m2
10:46 50.7 °F 49.8 °F 30.2 in Calm     97% 0 in 91 W/m2
10:51 50.7 °F 49.8 °F 30.2 in NE 0.9 mph 2 mph 97% 0 in 97 W/m2
10:56 50.9 °F 50 °F 30.2 in NE 0.9 mph 2 mph 97% 0 in 98 W/m2
11:01 51.1 °F 50.2 °F 30.2 in ENE 2 mph 3 mph 97% 0 in 102 W/m2
11:06 51.3 °F 50.4 °F 30.2 in Calm   2 mph 97% 0 in 111 W/m2
11:11 51.3 °F 50.4 °F 30.2 in Calm   3 mph 97% 0 in 113 W/m2
11:16 51.4 °F 50.5 °F 30.2 in Calm   1 mph 97% 0 in 123 W/m2
11:21 51.6 °F 50.5 °F 30.2 in ENE 0.9 mph 2 mph 96% 0 in 141 W/m2
11:26 52 °F 50.9 °F 30.2 in ESE 0.9 mph 2 mph 96% 0 in 156 W/m2
11:31 52.2 °F 51.1 °F 30.2 in Calm   1 mph 96% 0 in 209 W/m2
11:36 52.5 °F 51.4 °F 30.2 in NNW 0.9 mph 1 mph 96% 0 in 195 W/m2
11:41 53.1 °F 51.6 °F 30.2 in NNE 0.9 mph 3 mph 95% 0 in 125 W/m2
11:46 53.2 °F 51.6 °F 30.2 in NE 2 mph 2 mph 94% 0 in 146 W/m2
11:51 53.8 °F 51.8 °F 30.2 in NNE 0.9 mph 2 mph 93% 0 in 102 W/m2
11:56 54 °F 51.4 °F 30.2 in NE 0.9 mph 3 mph 91% 0 in 84 W/m2
12:01 54.1 °F 51.3 °F 30.2 in NE 0.9 mph 3 mph 90% 0 in 49 W/m2
12:06 54.5 °F 51.3 °F 30.2 in Calm   2 mph 89% 0 in 56 W/m2
12:12 54.7 °F 51.4 °F 30.2 in NE 2.9 mph 3 mph 89% 0 in 53 W/m2
12:17 54.9 °F 51.4 °F 30.2 in Calm   2 mph 88% 0 in 53 W/m2
12:22 55 °F 51.3 °F 30.2 in Calm   3 mph 87% 0 in 42 W/m2
12:27 55.2 °F 51.4 °F 30.2 in East 0.9 mph 3 mph 87% 0 in 58 W/m2
12:32 55.6 °F 51.4 °F 30.2 in ENE 0.9 mph 6 mph 86% 0 in 39 W/m2
12:37 55.8 °F 51.6 °F 30.2 in North 0.9 mph 3 mph 86% 0 in 42 W/m2
12:42 55.9 °F 51.8 °F 30.2 in NE 0.9 mph 1 mph 86% 0 in 44 W/m2
12:47 55.9 °F 51.4 °F 30.2 in Calm   2 mph 85% 0 in 51 W/m2
12:52 55.9 °F 51.8 °F 30.2 in Calm   2 mph 86% 0 in 60 W/m2
12:57 56.1 °F 51.6 °F 30.2 in ENE 0.9 mph 3 mph 85% 0 in 72 W/m2
13:02 56.3 °F 51.8 °F 30.2 in East 0.9 mph 2 mph 85% 0 in 90 W/m2
13:07 56.5 °F 52 °F 30.2 in East 0.9 mph 2 mph 85% 0 in 116 W/m2
13:12 56.7 °F 52.2 °F 30.2 in Calm   1 mph 85% 0 in 137 W/m2
13:17 56.8 °F 52.3 °F 30.2 in Calm   2 mph 85% 0 in 130 W/m2
13:22 57 °F 52.5 °F 30.2 in East 2 mph 4 mph 85% 0 in 132 W/m2
13:27 57.6 °F 52.7 °F 30.2 in East 0.9 mph 1 mph 84% 0 in 148 W/m2
13:32 57.9 °F 52.7 °F 30.2 in ENE 2 mph 3 mph 83% 0 in 132 W/m2
13:37 58.3 °F 53.1 °F 30.2 in Calm   1 mph 83% 0 in 134 W/m2
13:42 58.5 °F 53.1 °F 30.2 in Calm   2 mph 82% 0 in 146 W/m2
13:47 58.6 °F 53.2 °F 30.2 in Calm   4 mph 82% 0 in 155 W/m2
13:52 58.8 °F 53.4 °F 30.2 in Calm   1 mph 82% 0 in 165 W/m2
13:57 59 °F 53.6 °F 30.2 in ESE 0.9 mph 2 mph 82% 0 in 176 W/m2
14:02 59.4 °F 53.6 °F 30.2 in ESE 0.9 mph 3 mph 81% 0 in 172 W/m2
14:07 59.5 °F 53.8 °F 30.2 in NE 0.9 mph 2 mph 81% 0 in 155 W/m2
14:12 59.5 °F 53.8 °F 30.2 in Calm   3 mph 81% 0 in 144 W/m2
14:17 59.7 °F 53.6 °F 30.2 in East 0.9 mph 3 mph 80% 0 in 139 W/m2
14:22 59.7 °F 54 °F 30.2 in Calm   1 mph 81% 0 in 130 W/m2
14:27 59.7 °F 54 °F 30.2 in ENE 0.9 mph 3 mph 81% 0 in 130 W/m2
14:32 59.9 °F 54.1 °F 30.2 in Calm   2 mph 81% 0 in 130 W/m2
14:37 60.1 °F 54 °F 30.2 in Calm   2 mph 80% 0 in 120 W/m2
14:42 60.1 °F 54 °F 30.2 in Calm   1 mph 80% 0 in 116 W/m2
14:47 60.3 °F 54.3 °F 30.2 in East 0.9 mph 2 mph 81% 0 in 109 W/m2
14:52 60.3 °F 54.1 °F 30.2 in Calm     80% 0 in 102 W/m2
14:57 60.3 °F 54.1 °F 30.2 in East 0.9 mph 1 mph 80% 0 in 93 W/m2
15:02 60.3 °F 53.8 °F 30.2 in Calm   1 mph 79% 0 in 86 W/m2
15:07 60.3 °F 54.1 °F 30.2 in Calm   1 mph 80% 0 in 76 W/m2
15:12 60.3 °F 54.1 °F 30.2 in Calm   1 mph 80% 0 in 74 W/m2
15:17 60.3 °F 53.8 °F 30.2 in Calm     79% 0 in 69 W/m2
15:22 60.1 °F 54 °F 30.2 in Calm     80% 0 in 67 W/m2
15:27 60.1 °F 54.3 °F 30.2 in Calm     81% 0 in 63 W/m2
15:32 60.1 °F 54.3 °F 30.2 in Calm     81% 0 in 58 W/m2
15:37 60.1 °F 54.5 °F 30.2 in Calm     82% 0 in 54 W/m2
15:42 59.7 °F 54.1 °F 30.2 in Calm     82% 0 in 47 W/m2
15:47 59.7 °F 54.1 °F 30.2 in Calm     82% 0 in 42 W/m2
15:52 59.5 °F 54 °F 30.2 in Calm     82% 0 in 37 W/m2
15:57 59.5 °F 54.3 °F 30.2 in Calm     83% 0 in 33 W/m2
16:02 59.5 °F 54.3 °F 30.2 in Calm     83% 0 in 30 W/m2
16:07 59.4 °F 54.5 °F 30.2 in Calm     84% 0 in 28 W/m2
16:12 59.2 °F 54.3 °F 30.2 in Calm     84% 0 in 25 W/m2
16:17 59.2 °F 54.3 °F 30.2 in Calm     84% 0 in 21 W/m2
16:22 58.8 °F 54 °F 30.2 in Calm     84% 0 in 18 W/m2
16:27 58.6 °F 54.1 °F 30.2 in Calm     85% 0 in 14 W/m2
16:32 58.6 °F 54.1 °F 30.2 in Calm     85% 0 in 12 W/m2
16:37 58.5 °F 54 °F 30.2 in Calm     85% 0 in 12 W/m2
16:42 58.3 °F 53.8 °F 30.2 in Calm     85% 0 in 11 W/m2
16:47 58.1 °F 53.6 °F 30.2 in Calm     85% 0 in 9 W/m2
16:52 57.9 °F 53.8 °F 30.2 in Calm     86% 0 in 5 W/m2
16:57 57.7 °F 53.6 °F 30.2 in Calm     86% 0 in 0 W/m2
17:02 57.6 °F 53.4 °F 30.2 in Calm     86% 0 in 0 W/m2
17:07 57.6 °F 53.4 °F 30.2 in Calm     86% 0 in 0 W/m2
17:13 57.4 °F 53.6 °F 30.2 in Calm     87% 0 in 0 W/m2
17:16 57.2 °F 53.4 °F 30.2 in Calm     87% 0 in 0 W/m2
17:21 57 °F 53.2 °F 30.2 in Calm     87% 0 in 0 W/m2
17:26 56.8 °F 53.1 °F 30.2 in Calm     87% 0 in 0 W/m2
17:31 56.7 °F 53.1 °F 30.2 in Calm     88% 0 in 0 W/m2
17:36 56.7 °F 53.1 °F 30.2 in Calm     88% 0 in 0 W/m2
17:41 56.5 °F 52.9 °F 30.2 in Calm     88% 0 in 0 W/m2
17:46 56.3 °F 52.9 °F 30.2 in Calm     88% 0 in 0 W/m2
17:51 56.1 °F 52.9 °F 30.2 in Calm     89% 0 in 0 W/m2
17:56 55.9 °F 52.7 °F 30.2 in Calm     89% 0 in 0 W/m2
18:02 55.9 °F 52.7 °F 30.2 in Calm     89% 0 in 0 W/m2
18:07 55.8 °F 52.5 °F 30.2 in Calm     89% 0 in 0 W/m2
18:12 55.8 °F 52.9 °F 30.2 in Calm     90% 0 in 0 W/m2
18:17 55.6 °F 52.7 °F 30.2 in Calm     90% 0 in 0 W/m2
18:22 55.6 °F 52.7 °F 30.2 in Calm     90% 0 in 0 W/m2
18:27 55.2 °F 52.3 °F 30.2 in Calm     90% 0 in 0 W/m2
18:32 55.2 °F 52.3 °F 30.2 in Calm     90% 0 in 0 W/m2
18:37 55 °F 52.2 °F 30.2 in Calm     90% 0 in 0 W/m2
18:42 54.9 °F 52 °F 30.2 in Calm     90% 0 in 0 W/m2
18:47 54.7 °F 51.8 °F 30.2 in Calm     90% 0 in 0 W/m2
18:52 54.3 °F 51.4 °F 30.2 in Calm   1 mph 90% 0 in 0 W/m2
18:57 54.1 °F 51.3 °F 30.2 in Calm   1 mph 90% 0 in 0 W/m2
19:02 53.8 °F 51.3 °F 30.2 in Calm     91% 0 in 0 W/m2
19:07 53.6 °F 51.1 °F 30.2 in Calm     91% 0 in 0 W/m2
19:12 53.2 °F 50.7 °F 30.2 in Calm     91% 0 in 0 W/m2
19:17 53.1 °F 50.5 °F 30.2 in Calm     91% 0 in 0 W/m2
19:22 52.9 °F 50.5 °F 30.2 in Calm     92% 0 in 0 W/m2
19:27 52.7 °F 50.4 °F 30.2 in Calm     92% 0 in 0 W/m2
19:32 52.5 °F 50.2 °F 30.2 in Calm     92% 0 in 0 W/m2
19:37 52.3 °F 50.4 °F 30.2 in Calm     93% 0 in 0 W/m2
19:42 52.3 °F 50.4 °F 30.2 in Calm     93% 0 in 0 W/m2
19:47 52.2 °F 50.2 °F 30.2 in Calm     93% 0 in 0 W/m2
19:52 51.8 °F 49.8 °F 30.2 in Calm     93% 0 in 0 W/m2
19:57 51.8 °F 49.8 °F 30.2 in Calm     93% 0 in 0 W/m2
20:02 51.8 °F 50.2 °F 30.2 in Calm     94% 0 in 0 W/m2
20:07 51.6 °F 50 °F 30.2 in Calm     94% 0 in 0 W/m2
20:12 51.4 °F 49.8 °F 30.2 in Calm     94% 0 in 0 W/m2
20:17 51.3 °F 49.6 °F 30.2 in Calm     94% 0 in 0 W/m2
20:22 51.1 °F 49.5 °F 30.2 in Calm     94% 0 in 0 W/m2
20:27 50.9 °F 49.3 °F 30.2 in Calm     94% 0 in 0 W/m2
20:32 50.7 °F 49.1 °F 30.2 in Calm     94% 0 in 0 W/m2
20:37 50.7 °F 49.3 °F 30.2 in Calm     95% 0 in 0 W/m2
20:42 50.7 °F 49.3 °F 30.2 in Calm     95% 0 in 0 W/m2
20:47 50.5 °F 49.1 °F 30.2 in Calm     95% 0 in 0 W/m2
20:52 50.4 °F 48.7 °F 30.2 in Calm     94% 0 in 0 W/m2
20:57 50.2 °F 48.6 °F 30.2 in Calm     94% 0 in 0 W/m2
21:02 50.2 °F 48.7 °F 30.2 in Calm     95% 0 in 0 W/m2
21:07 50.2 °F 48.7 °F 30.2 in Calm     95% 0 in 0 W/m2
21:12 49.8 °F 48.2 °F 30.2 in Calm     94% 0 in 0 W/m2
21:17 49.6 °F 48 °F 30.2 in Calm     94% 0 in 0 W/m2
21:22 49.5 °F 48 °F 30.2 in Calm     95% 0 in 0 W/m2
21:27 49.3 °F 47.8 °F 30.2 in Calm     95% 0 in 0 W/m2
21:32 49.3 °F 47.8 °F 30.2 in Calm     95% 0 in 0 W/m2
21:37 49.3 °F 47.8 °F 30.2 in Calm     95% 0 in 0 W/m2
21:42 49.1 °F 47.7 °F 30.2 in Calm     95% 0 in 0 W/m2
21:47 48.9 °F 47.5 °F 30.2 in Calm     95% 0 in 0 W/m2
21:52 48.7 °F 47.3 °F 30.2 in Calm     95% 0 in 0 W/m2
21:57 48.6 °F 47.1 °F 30.2 in Calm     95% 0 in 0 W/m2
22:02 48.4 °F 46.9 °F 30.2 in Calm     95% 0 in 0 W/m2
22:07 48.2 °F 46.8 °F 30.2 in Calm     95% 0 in 0 W/m2
22:12 48 °F 46.6 °F 30.2 in Calm     95% 0 in 0 W/m2
22:17 48 °F 46.6 °F 30.2 in Calm     95% 0 in 0 W/m2
22:22 48 °F 46.6 °F 30.2 in Calm     95% 0 in 0 W/m2
22:27 48 °F 46.6 °F 30.2 in Calm     95% 0 in 0 W/m2
22:32 47.8 °F 46.4 °F 30.2 in Calm     95% 0 in 0 W/m2
22:37 47.7 °F 46.2 °F 30.2 in Calm     95% 0 in 0 W/m2
22:42 47.8 °F 46.8 °F 30.2 in Calm     96% 0 in 0 W/m2
22:47 47.8 °F 46.8 °F 30.2 in Calm     96% 0 in 0 W/m2
22:52 47.7 °F 46.6 °F 30.2 in Calm     96% 0 in 0 W/m2
22:57 47.7 °F 46.6 °F 30.2 in Calm     96% 0 in 0 W/m2
23:02 47.7 °F 46.6 °F 30.2 in Calm     96% 0 in 0 W/m2
23:07 47.5 °F 46.4 °F 30.2 in Calm     96% 0 in 0 W/m2
23:12 47.5 °F 46.4 °F 30.2 in Calm     96% 0 in 0 W/m2
23:17 47.3 °F 46.2 °F 30.2 in Calm     96% 0 in 0 W/m2
23:22 47.1 °F 46 °F 30.2 in Calm     96% 0 in 0 W/m2
23:27 46.9 °F 45.9 °F 30.2 in Calm     96% 0 in 0 W/m2
23:32 46.9 °F 45.9 °F 30.2 in Calm     96% 0 in 0 W/m2
23:37 46.9 °F 45.9 °F 30.2 in Calm     96% 0 in 0 W/m2
23:42 46.8 °F 45.7 °F 30.2 in Calm     96% 0 in 0 W/m2
23:47 46.8 °F 45.7 °F 30.2 in Calm     96% 0 in 0 W/m2
23:52 46.6 °F 45.5 °F 30.2 in Calm     96% 0 in 0 W/m2
23:57 46.6 °F 45.5 °F 30.2 in Calm     96% 0 in 0 W/m2
Juneau County Weather
Compliments of Weather Underground - 2 mb